Time;durP1;ratioP1;P1;durP2;ratioP2;P2;SDS_P1;SDS_P2;PMS_P1;PMS_P2;Temp;Humidity;BMP_temperature;BMP_pressure;BME280_temperature;BME280_humidity;BME280_pressure;Samples;Min_cycle;Max_cycle;Signal;HPM_P1;HPM_P2
2021/07/09 00:02:03;;;;;;;24.17;15.05;;;16.60;99.90;;;;;;5068705;28;20124;-81
2021/07/09 00:04:31;;;;;;;28.02;16.00;;;16.50;99.90;;;;;;5034443;28;20045;-80
2021/07/09 00:06:57;;;;;;;26.02;17.27;;;16.50;99.90;;;;;;5034667;28;20103;-81
2021/07/09 00:09:26;;;;;;;25.48;15.80;;;16.50;99.90;;;;;;5034483;28;20053;-81
2021/07/09 00:11:55;;;;;;;24.95;15.65;;;16.50;99.90;;;;;;5051195;28;20045;-81
2021/07/09 00:14:28;;;;;;;24.60;15.55;;;16.50;99.90;;;;;;5050958;28;20486;-81
2021/07/09 00:16:55;;;;;;;26.38;15.32;;;16.50;99.90;;;;;;5051076;28;20099;-81
2021/07/09 00:19:22;;;;;;;22.92;16.00;;;16.50;99.90;;;;;;5034491;28;20041;-81
2021/07/09 00:21:49;;;;;;;31.55;18.05;;;16.50;99.90;;;;;;5034661;28;20045;-80
2021/07/09 00:24:16;;;;;;;25.02;16.08;;;16.40;99.90;;;;;;5050791;28;20120;-81
2021/07/09 00:26:43;;;;;;;26.65;17.45;;;16.40;99.90;;;;;;5067967;28;20509;-80
2021/07/09 00:29:11;;;;;;;28.42;16.35;;;16.30;99.90;;;;;;5034670;28;20052;-80
2021/07/09 00:31:37;;;;;;;28.98;18.50;;;16.30;99.90;;;;;;5050264;28;20482;-80
2021/07/09 00:34:06;;;;;;;31.83;17.70;;;16.30;99.90;;;;;;5050554;28;20045;-80
2021/07/09 00:36:35;;;;;;;28.02;18.38;;;16.20;99.90;;;;;;5050353;28;20045;-81
2021/07/09 00:39:07;;;;;;;29.85;17.92;;;16.20;99.90;;;;;;5050120;28;20049;-80
2021/07/09 00:41:35;;;;;;;29.00;18.60;;;16.20;99.90;;;;;;5050103;28;20045;-81
2021/07/09 00:44:03;;;;;;;27.38;17.25;;;16.10;99.90;;;;;;5034222;28;20470;-80
2021/07/09 00:46:35;;;;;;;27.38;17.45;;;16.10;99.90;;;;;;5033965;28;20054;-81
2021/07/09 00:49:06;;;;;;;31.02;17.25;;;16.10;99.90;;;;;;5035181;28;20046;-81
2021/07/09 00:51:33;;;;;;;29.23;17.98;;;16.00;99.90;;;;;;5050170;28;20045;-81
2021/07/09 00:54:00;;;;;;;32.00;18.17;;;16.00;99.90;;;;;;5066873;28;20041;-81
2021/07/09 00:56:28;;;;;;;28.75;18.80;;;15.90;99.90;;;;;;5033613;28;20060;-81
2021/07/09 00:58:56;;;;;;;28.15;17.80;;;15.90;99.90;;;;;;5050312;28;20053;-81
2021/07/09 01:01:24;;;;;;;29.88;19.15;;;15.80;99.90;;;;;;5034057;28;20050;-81
2021/07/09 01:03:50;;;;;;;36.05;19.13;;;15.80;99.90;;;;;;5034265;28;20092;-81
2021/07/09 01:06:17;;;;;;;33.08;19.15;;;15.80;99.90;;;;;;5036410;28;20597;-80
2021/07/09 01:08:44;;;;;;;29.60;19.85;;;15.70;99.90;;;;;;5054253;28;20536;-81
2021/07/09 01:11:12;;;;;;;33.03;19.80;;;15.70;99.90;;;;;;5038291;28;20045;-81
2021/07/09 01:13:41;;;;;;;30.67;19.15;;;15.70;99.90;;;;;;5054029;28;20107;-81
2021/07/09 01:16:08;;;;;;;32.10;20.25;;;15.70;99.90;;;;;;5054349;28;20129;-80
2021/07/09 01:18:35;;;;;;;36.85;20.58;;;15.60;99.90;;;;;;5037661;28;20037;-80
2021/07/09 01:21:07;;;;;;;38.50;20.30;;;15.70;99.90;;;;;;5054152;28;20041;-80
2021/07/09 01:23:35;;;;;;;31.30;18.52;;;15.70;99.90;;;;;;5071499;28;20049;-81
2021/07/09 01:26:02;;;;;;;30.40;19.67;;;15.60;99.90;;;;;;5037393;28;20041;-81
2021/07/09 01:28:29;;;;;;;35.80;19.63;;;15.60;99.90;;;;;;5037455;28;20092;-81
2021/07/09 01:30:56;;;;;;;31.50;19.67;;;15.60;99.90;;;;;;5037809;28;20045;-81
2021/07/09 01:33:23;;;;;;;32.20;18.92;;;15.50;99.90;;;;;;5037523;28;20052;-81
2021/07/09 01:35:50;;;;;;;31.10;18.10;;;15.40;99.90;;;;;;5037504;28;20065;-81
2021/07/09 01:38:16;;;;;;;32.53;18.83;;;15.50;99.90;;;;;;5037486;28;20049;-81
2021/07/09 01:40:43;;;;;;;34.83;18.30;;;15.40;99.90;;;;;;5037291;28;20041;-81
2021/07/09 01:43:10;;;;;;;28.05;17.75;;;15.30;99.90;;;;;;5053804;28;20045;-81
2021/07/09 01:45:37;;;;;;;30.38;17.65;;;15.30;99.90;;;;;;5037190;28;20052;-81
2021/07/09 01:48:05;;;;;;;29.83;17.67;;;15.30;99.90;;;;;;5037280;28;20131;-81
2021/07/09 01:50:33;;;;;;;32.15;19.17;;;15.30;99.90;;;;;;5037089;28;20056;-81
2021/07/09 01:53:00;;;;;;;32.80;18.42;;;15.20;99.90;;;;;;5053586;28;20049;-81
2021/07/09 01:55:28;;;;;;;35.88;18.80;;;15.20;99.90;;;;;;5053545;28;20056;-81
2021/07/09 01:57:55;;;;;;;30.58;18.90;;;15.20;99.90;;;;;;5037193;28;20409;-80
2021/07/09 02:00:25;;;;;;;33.13;19.98;;;15.20;99.90;;;;;;5036915;28;20104;-80
2021/07/09 02:02:53;;;;;;;32.13;20.02;;;15.20;99.90;;;;;;5053128;28;20063;-81
2021/07/09 02:05:21;;;;;;;28.08;18.45;;;15.10;99.90;;;;;;5053219;28;20089;-80
2021/07/09 02:07:52;;;;;;;29.95;18.08;;;15.10;99.90;;;;;;5036237;28;20050;-80
2021/07/09 02:10:20;;;;;;;35.92;19.17;;;15.10;99.90;;;;;;5070982;28;20053;-81
2021/07/09 02:12:50;;;;;;;30.10;18.73;;;15.10;99.90;;;;;;5070633;28;20042;-81
2021/07/09 02:15:17;;;;;;;36.22;20.35;;;15.10;99.90;;;;;;5037504;28;20551;-81
2021/07/09 02:17:45;;;;;;;31.35;18.85;;;15.10;99.90;;;;;;5069115;28;20065;-81
2021/07/09 02:20:15;;;;;;;30.95;19.33;;;15.10;99.90;;;;;;5036760;28;20045;-81
2021/07/09 02:22:43;;;;;;;31.35;19.90;;;15.10;99.90;;;;;;5052975;28;20092;-81
2021/07/09 02:25:10;;;;;;;37.22;21.52;;;15.10;99.90;;;;;;5052968;28;20465;-81
2021/07/09 02:27:43;;;;;;;31.90;20.15;;;15.10;99.90;;;;;;5052860;28;20041;-81
2021/07/09 02:30:13;;;;;;;36.30;21.42;;;15.10;99.90;;;;;;5052771;28;20095;-81
2021/07/09 02:32:40;;;;;;;32.95;20.83;;;15.10;99.90;;;;;;5052525;28;20118;-81
2021/07/09 02:35:12;;;;;;;37.10;21.27;;;15.00;99.90;;;;;;5052744;28;20092;-81
2021/07/09 02:37:39;;;;;;;36.47;21.73;;;15.00;99.90;;;;;;5070561;28;20060;-81
2021/07/09 02:40:07;;;;;;;35.97;23.67;;;15.00;99.90;;;;;;5036456;28;20095;-81
2021/07/09 02:42:34;;;;;;;39.65;24.13;;;15.00;99.90;;;;;;5035949;28;20064;-81
2021/07/09 02:45:01;;;;;;;43.85;25.50;;;15.00;99.90;;;;;;5036425;28;20041;-81
2021/07/09 02:47:28;;;;;;;42.47;26.13;;;15.00;99.90;;;;;;5052690;28;20072;-81
2021/07/09 02:49:55;;;;;;;48.88;27.02;;;15.10;99.90;;;;;;5052167;28;20124;-81
2021/07/09 02:52:21;;;;;;;46.00;27.27;;;15.10;99.90;;;;;;5052622;28;20045;-80
2021/07/09 02:54:48;;;;;;;51.25;27.60;;;15.10;99.90;;;;;;5051940;28;20081;-81
2021/07/09 02:57:15;;;;;;;47.60;28.10;;;15.10;99.90;;;;;;5036275;28;20494;-80
2021/07/09 02:59:42;;;;;;;51.55;28.63;;;15.10;99.90;;;;;;5069661;28;20120;-81
2021/07/09 03:02:08;;;;;;;51.90;28.65;;;15.10;99.90;;;;;;5035918;28;20056;-80
2021/07/09 03:04:36;;;;;;;42.25;26.88;;;15.20;99.90;;;;;;5035830;28;20405;-80
2021/07/09 03:07:03;;;;;;;45.65;28.08;;;15.20;99.90;;;;;;5035725;28;20145;-80
2021/07/09 03:09:30;;;;;;;52.28;28.55;;;15.20;99.90;;;;;;5035673;28;20481;-80
2021/07/09 03:11:56;;;;;;;54.22;30.67;;;15.30;99.90;;;;;;5035465;28;20065;-81
2021/07/09 03:14:23;;;;;;;48.70;29.10;;;15.30;99.90;;;;;;5035685;28;20053;-80
2021/07/09 03:16:50;;;;;;;44.03;28.05;;;15.40;99.90;;;;;;5035409;28;20060;-81
2021/07/09 03:19:18;;;;;;;44.65;27.92;;;15.40;99.90;;;;;;5035522;28;20045;-81
2021/07/09 03:21:45;;;;;;;45.25;27.48;;;15.40;99.90;;;;;;5035339;28;20049;-81
2021/07/09 03:24:12;;;;;;;45.20;27.85;;;15.40;99.90;;;;;;5035219;28;20037;-81
2021/07/09 03:26:39;;;;;;;39.15;25.05;;;15.40;99.90;;;;;;5068967;28;20045;-81
2021/07/09 03:29:06;;;;;;;41.90;25.63;;;15.50;99.90;;;;;;5034580;28;20041;-80
2021/07/09 03:31:33;;;;;;;46.67;25.55;;;15.40;99.90;;;;;;5034771;28;20120;-79
2021/07/09 03:34:00;;;;;;;36.13;23.95;;;15.40;99.90;;;;;;5034949;28;20042;-80
2021/07/09 03:36:27;;;;;;;41.60;24.75;;;15.50;99.90;;;;;;5051608;28;20049;-80
2021/07/09 03:38:58;;;;;;;37.50;24.17;;;15.50;99.90;;;;;;5051307;28;20056;-80
2021/07/09 03:41:25;;;;;;;43.25;23.70;;;15.50;99.90;;;;;;5035184;28;20048;-80
2021/07/09 03:43:53;;;;;;;38.15;22.25;;;15.40;99.90;;;;;;5034987;28;20147;-81
2021/07/09 03:46:19;;;;;;;34.20;22.48;;;15.50;99.90;;;;;;5051332;28;20050;-80
2021/07/09 03:48:46;;;;;;;32.72;22.35;;;15.50;99.90;;;;;;5051273;28;20048;-80
2021/07/09 03:51:13;;;;;;;35.15;22.15;;;15.50;99.90;;;;;;5068910;28;20038;-81
2021/07/09 03:53:40;;;;;;;33.38;21.67;;;15.60;99.90;;;;;;5051149;28;20046;-81
2021/07/09 03:56:06;;;;;;;30.63;21.17;;;15.60;99.90;;;;;;5034602;28;20049;-80
2021/07/09 03:58:35;;;;;;;31.73;20.55;;;15.50;99.90;;;;;;5034789;28;20567;-80
2021/07/09 04:01:03;;;;;;;32.00;20.92;;;15.50;99.90;;;;;;5050925;28;20050;-80
2021/07/09 04:03:30;;;;;;;37.53;22.15;;;15.60;99.90;;;;;;5034746;28;20478;-80
2021/07/09 04:05:57;;;;;;;35.15;20.85;;;15.60;99.90;;;;;;5034600;28;20405;-80
2021/07/09 04:08:24;;;;;;;32.47;20.45;;;15.60;99.90;;;;;;5034621;28;20124;-81
2021/07/09 04:10:51;;;;;;;29.02;19.60;;;15.60;99.90;;;;;;5050792;28;20103;-81
2021/07/09 04:13:17;;;;;;;30.75;19.08;;;15.60;99.90;;;;;;5034841;28;20052;-80
2021/07/09 04:15:44;;;;;;;31.50;18.77;;;15.60;99.90;;;;;;5068148;28;20099;-80
2021/07/09 04:18:11;;;;;;;33.13;20.00;;;15.70;99.90;;;;;;5050938;28;20053;-80
2021/07/09 04:20:38;;;;;;;30.75;18.83;;;15.70;99.90;;;;;;5050764;28;20049;-80
2021/07/09 04:23:05;;;;;;;30.85;19.95;;;15.70;99.90;;;;;;5034241;28;20053;-80
2021/07/09 04:25:32;;;;;;;29.13;19.83;;;15.70;99.90;;;;;;5050745;28;20045;-81
2021/07/09 04:27:58;;;;;;;29.67;19.67;;;15.80;99.90;;;;;;5034020;28;20046;-81
2021/07/09 04:30:25;;;;;;;33.58;20.33;;;15.80;99.90;;;;;;5068580;28;20041;-81
2021/07/09 04:32:52;;;;;;;33.17;19.38;;;15.80;99.90;;;;;;5050384;28;20100;-81
2021/07/09 04:35:20;;;;;;;30.33;20.63;;;15.80;99.90;;;;;;5034160;28;20090;-80
2021/07/09 04:37:47;;;;;;;31.30;19.90;;;15.80;99.90;;;;;;5034168;28;20053;-80
2021/07/09 04:40:15;;;;;;;30.13;19.70;;;15.80;99.90;;;;;;5067280;28;20077;-80
2021/07/09 04:42:43;;;;;;;34.45;19.92;;;15.90;99.90;;;;;;5034091;28;20041;-80
2021/07/09 04:45:10;;;;;;;37.75;21.13;;;15.90;99.90;;;;;;5034023;28;20056;-81
2021/07/09 04:47:37;;;;;;;36.80;21.05;;;15.80;99.90;;;;;;5050451;28;20041;-81
2021/07/09 04:50:05;;;;;;;32.67;20.27;;;15.80;99.90;;;;;;5033711;28;20060;-80
2021/07/09 04:52:32;;;;;;;36.47;20.67;;;15.90;99.90;;;;;;5050280;28;20049;-81
2021/07/09 04:54:59;;;;;;;32.78;20.20;;;15.90;99.90;;;;;;5033491;28;20394;-81
2021/07/09 04:57:26;;;;;;;32.08;19.35;;;15.90;99.90;;;;;;5017843;28;20057;-81
2021/07/09 04:59:53;;;;;;;30.15;19.25;;;15.90;99.90;;;;;;5033817;28;20049;-80
2021/07/09 05:02:20;;;;;;;31.13;19.80;;;16.00;99.90;;;;;;5033965;28;20100;-80
2021/07/09 05:04:47;;;;;;;29.58;18.80;;;16.00;99.90;;;;;;5033683;28;20049;-80
2021/07/09 05:07:14;;;;;;;26.63;17.73;;;16.10;99.90;;;;;;5013916;28;20047;-81
2021/07/09 05:09:41;;;;;;;29.58;17.83;;;16.00;99.90;;;;;;5014364;28;20042;-80
2021/07/09 05:12:09;;;;;;;27.60;18.73;;;16.00;99.90;;;;;;5014265;28;20414;-81
2021/07/09 05:14:37;;;;;;;27.50;17.50;;;16.10;99.90;;;;;;5014342;28;20093;-81
2021/07/09 05:17:07;;;;;;;28.08;18.10;;;16.10;99.90;;;;;;5046024;28;20061;-81
2021/07/09 05:19:34;;;;;;;31.10;18.60;;;16.10;99.90;;;;;;5049989;28;20042;-80
2021/07/09 05:22:01;;;;;;;28.20;17.95;;;16.20;99.90;;;;;;5033426;28;20121;-81
2021/07/09 05:24:28;;;;;;;28.25;18.95;;;16.20;99.90;;;;;;5033728;28;20049;-81
2021/07/09 05:26:55;;;;;;;26.63;18.10;;;16.30;99.90;;;;;;5033055;28;20050;-81
2021/07/09 05:29:22;;;;;;;29.55;18.13;;;16.30;99.90;;;;;;5050082;28;20072;-81
2021/07/09 05:31:49;;;;;;;25.55;17.92;;;16.40;99.90;;;;;;5033772;28;20052;-81
2021/07/09 05:34:16;;;;;;;26.65;17.08;;;16.40;99.90;;;;;;5033705;28;20046;-82
2021/07/09 05:36:42;;;;;;;26.67;16.98;;;16.40;99.90;;;;;;5033264;28;20045;-81
2021/07/09 05:39:11;;;;;;;27.65;18.45;;;16.50;99.90;;;;;;5033672;28;20049;-81
2021/07/09 05:41:38;;;;;;;28.35;18.92;;;16.50;99.90;;;;;;5018337;28;20073;-81
2021/07/09 05:44:05;;;;;;;28.20;18.40;;;16.50;99.90;;;;;;5033769;28;20428;-81
2021/07/09 05:46:33;;;;;;;30.40;19.38;;;16.50;99.90;;;;;;5049982;28;20121;-81
2021/07/09 05:49:00;;;;;;;30.73;18.80;;;16.60;99.90;;;;;;5033559;28;20553;-81
2021/07/09 05:51:27;;;;;;;28.98;18.45;;;16.60;99.90;;;;;;5018192;28;20124;-81
2021/07/09 05:53:55;;;;;;;27.40;18.95;;;16.70;99.90;;;;;;5037628;28;20127;-81
2021/07/09 05:56:22;;;;;;;29.88;19.00;;;16.70;99.90;;;;;;5021135;28;20041;-81
2021/07/09 05:58:48;;;;;;;27.95;20.52;;;16.70;99.90;;;;;;5037202;28;20067;-81
2021/07/09 06:01:15;;;;;;;23.92;17.75;;;16.80;99.90;;;;;;5037189;28;20045;-81
2021/07/09 06:03:42;;;;;;;25.33;18.35;;;16.80;99.90;;;;;;5037761;28;20041;-81
2021/07/09 06:06:09;;;;;;;24.55;17.50;;;16.80;99.90;;;;;;5053602;28;20057;-81
2021/07/09 06:08:36;;;;;;;23.15;16.80;;;16.90;99.90;;;;;;5037536;28;20128;-81
2021/07/09 06:11:03;;;;;;;24.30;16.58;;;17.00;99.90;;;;;;5036656;28;20076;-81
2021/07/09 06:13:30;;;;;;;22.67;16.52;;;17.00;99.90;;;;;;5020629;28;20128;-81
2021/07/09 06:15:57;;;;;;;23.02;15.68;;;17.00;99.90;;;;;;5053184;28;20077;-80
2021/07/09 06:18:24;;;;;;;20.02;16.33;;;17.10;99.90;;;;;;5036641;28;20055;-81
2021/07/09 06:20:50;;;;;;;23.27;16.90;;;17.10;99.90;;;;;;5020622;28;20041;-80
2021/07/09 06:23:17;;;;;;;25.95;16.75;;;17.10;99.90;;;;;;5052982;28;20056;-80
2021/07/09 06:25:44;;;;;;;23.25;16.63;;;17.10;99.90;;;;;;5036785;28;20052;-80
2021/07/09 06:28:11;;;;;;;24.08;16.60;;;17.10;99.90;;;;;;5036386;28;20510;-80
2021/07/09 06:30:38;;;;;;;22.00;15.30;;;17.20;99.90;;;;;;5068002;28;20047;-80
2021/07/09 06:33:08;;;;;;;21.30;15.15;;;17.20;99.90;;;;;;5039629;28;20478;-81
2021/07/09 06:35:38;;;;;;;23.30;14.80;;;17.30;99.90;;;;;;5069316;28;20072;-80
2021/07/09 06:38:07;;;;;;;19.60;13.63;;;17.30;99.90;;;;;;5055908;28;20493;-81
2021/07/09 06:40:34;;;;;;;17.70;12.68;;;17.40;99.90;;;;;;5056183;28;20045;-81
2021/07/09 06:43:01;;;;;;;17.85;11.73;;;17.50;99.90;;;;;;5055082;28;20049;-80
2021/07/09 06:45:27;;;;;;;19.02;11.55;;;17.50;99.90;;;;;;5052392;28;20049;-81
2021/07/09 06:47:54;;;;;;;18.25;12.32;;;17.50;99.90;;;;;;5020093;28;20060;-80
2021/07/09 06:50:21;;;;;;;22.10;13.52;;;17.40;99.90;;;;;;5019799;28;20049;-80
2021/07/09 06:52:48;;;;;;;18.85;13.40;;;17.40;99.90;;;;;;5036273;28;20060;-80
2021/07/09 06:55:15;;;;;;;20.45;13.82;;;17.30;99.90;;;;;;5052140;28;20073;-80
2021/07/09 06:57:47;;;;;;;17.42;13.02;;;17.40;99.90;;;;;;5035674;28;20060;-81
2021/07/09 07:00:15;;;;;;;18.98;13.63;;;17.40;99.90;;;;;;5035993;28;20494;-81
2021/07/09 07:02:43;;;;;;;21.13;14.27;;;17.50;99.90;;;;;;5051582;28;20076;-80
2021/07/09 07:05:10;;;;;;;19.20;14.23;;;17.50;99.90;;;;;;5019504;28;20383;-80
2021/07/09 07:07:37;;;;;;;18.35;13.75;;;17.50;99.90;;;;;;5035789;28;20045;-78
2021/07/09 07:10:06;;;;;;;22.77;14.70;;;17.60;99.90;;;;;;5051812;28;20088;-81
2021/07/09 07:12:33;;;;;;;23.13;14.25;;;17.70;99.90;;;;;;5051965;28;20049;-80
2021/07/09 07:15:01;;;;;;;21.67;14.40;;;17.80;99.90;;;;;;5035702;28;20042;-79
2021/07/09 07:17:28;;;;;;;17.80;13.27;;;18.00;99.90;;;;;;5035557;28;20451;-80
2021/07/09 07:19:55;;;;;;;20.77;13.10;;;18.00;99.90;;;;;;5035292;28;20049;-79
2021/07/09 07:22:22;;;;;;;20.83;14.27;;;18.00;99.90;;;;;;5035159;28;20124;-80
2021/07/09 07:24:51;;;;;;;16.05;13.10;;;18.10;99.90;;;;;;5035592;28;20124;-81
2021/07/09 07:27:21;;;;;;;23.38;13.85;;;18.10;99.90;;;;;;5035129;28;20045;-81
2021/07/09 07:29:48;;;;;;;17.83;13.02;;;18.10;99.90;;;;;;5035494;28;20136;-82
2021/07/09 07:32:16;;;;;;;20.52;14.43;;;18.10;99.90;;;;;;5051163;28;20049;-79
2021/07/09 07:34:42;;;;;;;20.40;13.68;;;18.20;99.90;;;;;;5069074;28;20461;-79
2021/07/09 07:37:09;;;;;;;18.42;13.00;;;18.30;99.90;;;;;;5051205;28;20053;-80
2021/07/09 07:39:36;;;;;;;18.50;13.77;;;18.60;99.90;;;;;;5035115;28;20052;-79
2021/07/09 07:42:03;;;;;;;16.52;13.00;;;18.80;99.90;;;;;;5034943;28;20045;-79
2021/07/09 07:44:30;;;;;;;17.48;13.27;;;18.90;99.90;;;;;;5035013;28;20049;-80
2021/07/09 07:46:57;;;;;;;16.63;12.75;;;18.90;99.90;;;;;;5035169;28;20094;-79
2021/07/09 07:49:24;;;;;;;18.63;12.60;;;19.10;99.90;;;;;;5034459;28;20106;-79
2021/07/09 07:51:52;;;;;;;14.93;11.95;;;19.10;99.90;;;;;;5051458;28;20045;-79
2021/07/09 07:54:19;;;;;;;11.73;8.68;;;19.10;99.90;;;;;;5034200;28;20053;-78
2021/07/09 07:56:46;;;;;;;13.10;9.73;;;19.20;99.90;;;;;;5050768;28;20061;-78
2021/07/09 07:59:13;;;;;;;16.33;13.05;;;19.20;99.90;;;;;;5050349;28;20045;-76
2021/07/09 08:01:40;;;;;;;18.00;13.05;;;19.20;99.90;;;;;;5068317;28;20046;-77
2021/07/09 08:04:07;;;;;;;16.38;11.50;;;19.30;99.90;;;;;;5050879;28;20045;-80
2021/07/09 08:06:34;;;;;;;14.02;10.70;;;19.30;99.90;;;;;;5050440;28;20129;-79
2021/07/09 08:09:01;;;;;;;14.65;9.63;;;19.30;99.90;;;;;;5050759;28;20045;-80
2021/07/09 08:11:28;;;;;;;11.05;8.68;;;19.30;99.90;;;;;;5018389;28;20073;-79
2021/07/09 08:13:55;;;;;;;15.48;8.75;;;19.60;99.90;;;;;;5050777;28;20076;-79
2021/07/09 08:16:22;;;;;;;13.85;9.20;;;19.70;99.90;;;;;;5034343;28;20049;-79
2021/07/09 08:18:50;;;;;;;11.40;9.65;;;19.80;99.90;;;;;;5034779;28;20132;-79
2021/07/09 08:21:16;;;;;;;12.07;10.13;;;19.80;99.90;;;;;;5033935;28;20068;-79
2021/07/09 08:23:43;;;;;;;12.10;10.15;;;19.70;99.90;;;;;;5034335;28;20044;-79
2021/07/09 08:26:11;;;;;;;12.23;9.57;;;19.70;99.90;;;;;;5047535;28;20387;-79
2021/07/09 08:28:38;;;;;;;12.82;9.40;;;19.50;99.90;;;;;;5053943;28;20057;-79
2021/07/09 08:31:06;;;;;;;13.30;9.57;;;19.40;99.90;;;;;;5053941;28;20094;-79
2021/07/09 08:33:33;;;;;;;13.07;9.25;;;19.40;99.90;;;;;;5053909;28;20382;-79
2021/07/09 08:36:01;;;;;;;11.93;9.15;;;19.40;99.90;;;;;;5070627;28;20093;-79
2021/07/09 08:38:28;;;;;;;13.00;9.88;;;19.40;99.90;;;;;;5053856;28;20131;-79
2021/07/09 08:40:55;;;;;;;12.23;9.68;;;19.40;99.90;;;;;;5070444;28;20136;-79
2021/07/09 08:43:22;;;;;;;16.17;9.85;;;19.30;99.90;;;;;;5053732;28;20041;-80
2021/07/09 08:45:48;;;;;;;12.32;10.15;;;19.30;99.90;;;;;;5050727;28;20391;-79
2021/07/09 08:48:18;;;;;;;13.30;9.95;;;19.30;99.90;;;;;;5033915;28;20099;-80
2021/07/09 08:50:45;;;;;;;13.65;10.55;;;19.30;99.90;;;;;;5067930;28;20052;-80
2021/07/09 08:53:13;;;;;;;12.85;10.13;;;19.40;99.90;;;;;;5049991;28;20042;-80
2021/07/09 08:55:40;;;;;;;13.73;9.70;;;19.40;99.90;;;;;;5050198;28;20045;-81
2021/07/09 08:58:07;;;;;;;12.75;8.85;;;19.40;99.90;;;;;;5017933;28;20049;-81
2021/07/09 09:00:34;;;;;;;10.48;8.25;;;19.60;99.90;;;;;;5017137;28;20061;-79
2021/07/09 09:03:11;;;;;;;13.05;9.00;;;19.90;99.90;;;;;;5032461;28;20053;-82
2021/07/09 09:05:38;;;;;;;14.38;9.10;;;20.10;99.90;;;;;;5049761;28;20042;-82
2021/07/09 09:08:06;;;;;;;12.77;8.68;;;20.30;99.90;;;;;;5017766;28;20045;-83
2021/07/09 09:10:39;;;;;;;11.73;7.60;;;20.40;99.90;;;;;;5048721;28;20042;-81
2021/07/09 09:13:11;;;;;;;10.88;7.47;;;20.70;99.90;;;;;;5065168;28;20104;-83
2021/07/09 09:15:40;;;;;;;10.30;7.35;;;20.70;99.90;;;;;;5030873;28;20041;-84
2021/07/09 09:18:20;;;;;;;12.10;7.53;;;20.70;99.90;;;;;;5067146;28;20084;-82
2021/07/09 09:21:00;;;;;;;10.95;6.78;;;20.50;99.90;;;;;;5066164;28;20060;-82
2021/07/09 09:23:28;;;;;;;10.27;7.32;;;20.60;99.90;;;;;;5066838;28;20044;-83
2021/07/09 09:25:56;;;;;;;12.65;6.50;;;20.50;99.90;;;;;;5067035;28;20061;-83
2021/07/09 09:28:23;;;;;;;11.07;6.90;;;20.60;99.90;;;;;;5069644;28;20053;-83
2021/07/09 09:30:53;;;;;;;9.05;6.50;;;20.60;99.90;;;;;;5058131;28;20045;-82
2021/07/09 09:33:22;;;;;;;10.07;6.43;;;20.50;99.90;;;;;;5070826;28;20482;-84
2021/07/09 09:35:54;;;;;;;8.98;6.43;;;20.60;99.90;;;;;;5052241;28;20099;-83
2021/07/09 09:38:30;;;;;;;8.80;6.32;;;20.80;99.90;;;;;;5074034;28;20073;-82
2021/07/09 09:40:59;;;;;;;9.27;5.75;;;21.00;99.90;;;;;;5050369;28;20125;-80
2021/07/09 09:43:28;;;;;;;8.38;5.90;;;21.00;99.90;;;;;;5060519;28;20038;-82
2021/07/09 09:46:11;;;;;;;9.15;6.78;;;21.00;99.90;;;;;;5069926;28;20068;-82
2021/07/09 09:48:46;;;;;;;8.93;6.10;;;20.80;99.90;;;;;;5053884;28;20046;-83
2021/07/09 09:51:34;;;;;;;8.10;6.20;;;20.70;99.90;;;;;;5057451;28;20037;-79
2021/07/09 09:54:07;;;;;;;8.65;5.70;;;20.60;99.90;;;;;;5053868;28;20041;-82
2021/07/09 09:56:41;;;;;;;7.47;5.80;;;20.70;99.90;;;;;;5071024;28;20415;-82
2021/07/09 09:59:15;;;;;;;7.65;5.35;;;20.80;99.90;;;;;;5053888;28;20060;-80
2021/07/09 10:01:49;;;;;;;7.70;5.18;;;21.00;99.90;;;;;;5053301;28;20049;-81
2021/07/09 10:04:16;;;;;;;6.93;5.28;;;21.00;99.90;;;;;;5061704;28;20119;-82
2021/07/09 10:06:44;;;;;;;8.65;5.60;;;21.00;99.90;;;;;;5065469;28;20080;-81
2021/07/09 10:09:12;;;;;;;8.52;5.78;;;20.90;99.90;;;;;;5037101;28;20056;-81
2021/07/09 10:11:40;;;;;;;7.97;5.65;;;20.90;99.90;;;;;;5053463;28;20076;-81
2021/07/09 10:14:13;;;;;;;11.15;5.85;;;20.80;99.90;;;;;;5058732;28;20153;-81
2021/07/09 10:16:41;;;;;;;7.15;5.35;;;20.70;99.90;;;;;;5065578;28;20074;-81
2021/07/09 10:19:11;;;;;;;8.00;5.65;;;20.80;99.90;;;;;;5034424;28;20042;-80
2021/07/09 10:21:39;;;;;;;8.32;6.13;;;20.80;99.90;;;;;;5051742;28;20141;-81
2021/07/09 10:24:11;;;;;;;10.27;6.07;;;20.90;99.90;;;;;;5069481;28;20046;-81
2021/07/09 10:26:44;;;;;;;8.15;5.95;;;21.00;99.90;;;;;;5068933;28;20538;-83
2021/07/09 10:29:14;;;;;;;8.60;5.85;;;21.10;99.90;;;;;;5036777;28;20049;-81
2021/07/09 10:31:46;;;;;;;8.93;5.43;;;21.10;99.90;;;;;;5056186;28;20033;-81
2021/07/09 10:34:35;;;;;;;8.23;5.47;;;21.10;99.90;;;;;;5059378;28;20464;-81
2021/07/09 10:37:18;;;;;;;8.18;5.43;;;21.10;99.90;;;;;;5066100;28;20075;-81
2021/07/09 10:39:48;;;;;;;6.88;4.82;;;21.20;99.90;;;;;;5069467;28;20041;-80
2021/07/09 10:42:15;;;;;;;8.85;5.22;;;21.30;99.90;;;;;;5068861;28;20068;-82
2021/07/09 10:45:08;;;;;;;7.47;5.43;;;21.40;99.90;;;;;;5064971;28;20042;-81
2021/07/09 10:47:54;;;;;;;7.57;4.75;;;21.40;99.90;;;;;;5067322;28;20067;-81
2021/07/09 10:50:34;;;;;;;7.30;4.72;;;21.50;99.90;;;;;;5056849;28;20125;-83
2021/07/09 10:53:05;;;;;;;8.40;5.40;;;21.60;99.90;;;;;;5052960;28;20068;-83
2021/07/09 10:55:36;;;;;;;11.73;7.18;;;21.90;99.90;;;;;;5068804;28;20436;-83
2021/07/09 10:58:06;;;;;;;9.65;7.05;;;22.00;99.90;;;;;;5036598;28;20512;-82
2021/07/09 11:00:47;;;;;;;8.60;6.85;;;22.10;99.90;;;;;;5060040;28;20049;-81
2021/07/09 11:03:30;;;;;;;11.07;6.95;;;22.10;99.90;;;;;;5060053;28;20485;-82
2021/07/09 11:05:59;;;;;;;8.38;5.95;;;22.00;99.90;;;;;;5068580;28;20045;-83
2021/07/09 11:08:29;;;;;;;8.63;6.45;;;21.90;99.90;;;;;;5059727;28;20112;-83
2021/07/09 11:11:00;;;;;;;9.93;7.15;;;21.90;99.90;;;;;;5052000;28;20044;-85
2021/07/09 11:13:42;;;;;;;10.95;6.50;;;21.80;99.90;;;;;;5054349;28;20118;-85
2021/07/09 11:16:20;;;;;;;9.15;6.30;;;21.80;99.90;;;;;;5051809;28;20049;-83
2021/07/09 11:18:59;;;;;;;8.63;5.70;;;21.80;99.90;;;;;;5051463;28;20790;-82
2021/07/09 11:21:29;;;;;;;7.90;5.97;;;21.70;99.90;;;;;;5051316;28;20041;-85
2021/07/09 11:23:58;;;;;;;8.05;5.90;;;21.60;99.90;;;;;;5051525;28;20045;-83
2021/07/09 11:26:33;;;;;;;9.23;5.80;;;21.60;99.90;;;;;;5052009;28;20045;-82
2021/07/09 11:29:15;;;;;;;11.15;6.88;;;21.50;99.90;;;;;;5031993;28;20104;-83
2021/07/09 11:31:42;;;;;;;10.68;6.40;;;21.30;99.90;;;;;;5031532;28;20474;-82
2021/07/09 11:34:12;;;;;;;10.18;6.38;;;21.20;99.90;;;;;;5066019;28;20121;-83
2021/07/09 11:36:40;;;;;;;8.82;5.93;;;21.30;99.90;;;;;;5053983;28;20065;-82
2021/07/09 11:39:10;;;;;;;9.82;6.60;;;21.30;99.90;;;;;;5051619;28;20383;-81
2021/07/09 11:41:59;;;;;;;7.35;5.53;;;21.40;99.90;;;;;;5019415;28;20100;-82
2021/07/09 11:44:32;;;;;;;11.57;6.82;;;21.60;99.90;;;;;;5051587;28;20037;-82
2021/07/09 11:47:05;;;;;;;9.88;6.78;;;21.90;99.90;;;;;;5067851;28;20056;-82
2021/07/09 11:49:36;;;;;;;9.68;6.70;;;21.90;99.90;;;;;;5067363;28;20054;-82
2021/07/09 11:52:06;;;;;;;9.00;6.32;;;21.80;99.90;;;;;;5067820;28;20457;-82
2021/07/09 11:54:36;;;;;;;11.60;7.00;;;21.90;99.90;;;;;;5068323;28;20498;-81
2021/07/09 11:57:07;;;;;;;8.13;5.88;;;22.00;99.90;;;;;;5069218;28;20041;-82
2021/07/09 11:59:36;;;;;;;9.23;6.10;;;22.10;99.90;;;;;;5067337;28;20490;-82
2021/07/09 12:02:07;;;;;;;9.60;6.50;;;22.20;99.90;;;;;;5067652;28;20536;-83
2021/07/09 12:04:43;;;;;;;7.13;6.35;;;22.30;99.90;;;;;;5067289;28;20045;-82
2021/07/09 12:07:15;;;;;;;10.38;7.18;;;22.40;99.90;;;;;;5063718;28;20402;-82
2021/07/09 12:09:48;;;;;;;9.68;6.75;;;22.40;99.90;;;;;;5067145;28;20049;-83
2021/07/09 12:12:16;;;;;;;9.88;7.00;;;22.40;99.90;;;;;;5050922;28;20049;-82
2021/07/09 12:14:59;;;;;;;9.60;6.93;;;22.30;99.90;;;;;;5061085;28;20464;-82
2021/07/09 12:17:28;;;;;;;10.55;7.20;;;22.20;99.90;;;;;;5067534;28;20054;-81
2021/07/09 12:20:00;;;;;;;10.13;6.82;;;22.30;99.90;;;;;;5067973;28;20140;-82
2021/07/09 12:22:42;;;;;;;8.35;6.55;;;22.30;99.90;;;;;;5050636;28;20486;-82
2021/07/09 12:25:15;;;;;;;10.15;6.78;;;22.40;99.90;;;;;;5051039;28;20045;-82
2021/07/09 12:27:42;;;;;;;8.32;6.05;;;22.50;99.90;;;;;;5050333;28;20049;-82
2021/07/09 12:30:16;;;;;;;8.98;7.20;;;22.60;99.90;;;;;;5033051;28;20144;-82
2021/07/09 12:32:48;;;;;;;7.93;6.30;;;22.60;99.90;;;;;;5056722;28;20053;-81
2021/07/09 12:35:16;;;;;;;9.30;5.85;;;22.60;99.90;;;;;;5067071;28;20493;-82
2021/07/09 12:37:54;;;;;;;10.98;6.53;;;22.60;99.90;;;;;;5049312;28;20041;-82
2021/07/09 12:40:21;;;;;;;8.30;6.70;;;22.70;99.90;;;;;;5035854;28;20048;-82
2021/07/09 12:42:48;;;;;;;8.35;6.47;;;22.60;99.90;;;;;;5050565;28;20076;-86